Time;durP1;ratioP1;P1;durP2;ratioP2;P2;SDS_P1;SDS_P2;PMS_P1;PMS_P2;Temp;Humidity;BMP_temperature;BMP_pressure;BME280_temperature;BME280_humidity;BME280_pressure;Samples;Min_cycle;Max_cycle;Signal;HPM_P1;HPM_P2
2022/05/28 00:01:16;;;;;;;6.75;1.13;;;11.80;99.90;;;;;;5053753;28;20037;-71
2022/05/28 00:03:42;;;;;;;4.63;0.80;;;11.70;99.90;;;;;;5037205;28;20040;-71
2022/05/28 00:06:10;;;;;;;8.90;1.40;;;11.60;99.90;;;;;;5037367;28;20456;-70
2022/05/28 00:08:36;;;;;;;5.45;0.90;;;11.60;99.90;;;;;;5053673;28;20393;-71
2022/05/28 00:11:09;;;;;;;6.90;1.60;;;11.60;99.90;;;;;;5053520;28;20036;-71
2022/05/28 00:13:35;;;;;;;8.38;1.48;;;11.50;99.90;;;;;;5053890;28;20045;-71
2022/05/28 00:16:01;;;;;;;6.05;1.30;;;11.50;99.90;;;;;;5036934;28;20044;-71
2022/05/28 00:18:28;;;;;;;8.98;1.95;;;11.50;99.90;;;;;;5036971;28;20033;-71
2022/05/28 00:20:53;;;;;;;14.95;2.15;;;11.40;99.90;;;;;;5053418;28;20055;-70
2022/05/28 00:23:19;;;;;;;11.93;1.60;;;11.40;99.90;;;;;;5053328;28;20131;-70
2022/05/28 00:25:44;;;;;;;11.65;1.88;;;11.40;99.90;;;;;;5053323;28;20049;-71
2022/05/28 00:28:10;;;;;;;10.73;1.90;;;11.40;99.90;;;;;;5053278;28;20037;-71
2022/05/28 00:30:35;;;;;;;5.63;1.25;;;11.30;99.90;;;;;;5053080;28;20040;-71
2022/05/28 00:33:01;;;;;;;11.90;1.75;;;11.30;99.90;;;;;;5053218;28;20468;-71
2022/05/28 00:35:26;;;;;;;11.68;1.90;;;11.30;99.90;;;;;;5053414;28;20037;-71
2022/05/28 00:37:52;;;;;;;8.60;1.55;;;11.20;99.90;;;;;;5053327;28;20087;-70
2022/05/28 00:40:22;;;;;;;11.63;1.65;;;11.20;99.90;;;;;;5053001;28;20492;-70
2022/05/28 00:42:48;;;;;;;12.52;2.05;;;11.10;99.90;;;;;;5053027;28;20079;-70
2022/05/28 00:45:13;;;;;;;11.13;1.70;;;11.10;99.90;;;;;;5052971;28;20052;-70
2022/05/28 00:47:45;;;;;;;10.05;1.85;;;11.10;99.90;;;;;;5052942;28;20045;-70
2022/05/28 00:50:12;;;;;;;7.57;1.65;;;11.10;99.90;;;;;;5052448;28;20443;-71
2022/05/28 00:52:38;;;;;;;11.77;1.90;;;11.00;99.90;;;;;;5052816;28;20131;-71
2022/05/28 00:55:04;;;;;;;13.05;1.98;;;11.00;99.90;;;;;;5052804;28;20511;-71
2022/05/28 00:57:31;;;;;;;11.43;1.75;;;11.00;99.90;;;;;;5052954;28;20527;-71
2022/05/28 00:59:56;;;;;;;8.57;1.45;;;11.00;99.90;;;;;;5052596;28;20489;-70
2022/05/28 01:02:51;;;;;;;9.45;1.67;;;11.00;99.90;;;;;;5052668;28;20048;-71
2022/05/28 01:05:34;;;;;;;9.60;1.50;;;11.00;99.90;;;;;;5035262;28;20048;-71
2022/05/28 01:08:20;;;;;;;11.60;1.70;;;10.90;99.90;;;;;;5036222;28;20109;-71
2022/05/28 01:10:59;;;;;;;11.40;2.17;;;10.90;99.90;;;;;;5035762;28;20037;-70
2022/05/28 01:13:48;;;;;;;8.40;1.73;;;10.80;99.90;;;;;;5052783;28;20124;-71
2022/05/28 01:16:27;;;;;;;10.68;2.22;;;10.80;99.90;;;;;;5052730;28;20087;-71
2022/05/28 01:19:00;;;;;;;10.20;1.80;;;10.80;99.90;;;;;;5052374;28;20120;-71
2022/05/28 01:21:37;;;;;;;12.95;1.95;;;10.80;99.90;;;;;;5052341;28;20133;-71
2022/05/28 01:24:28;;;;;;;13.15;2.50;;;10.70;99.90;;;;;;5035655;28;20044;-71
2022/05/28 01:27:04;;;;;;;11.23;1.75;;;10.70;99.90;;;;;;5035683;28;20041;-71
2022/05/28 01:29:38;;;;;;;9.77;1.80;;;10.70;99.90;;;;;;5035715;28;20041;-71
2022/05/28 01:32:05;;;;;;;9.40;1.85;;;10.60;99.90;;;;;;5035444;28;20124;-71
2022/05/28 01:34:32;;;;;;;11.30;1.70;;;10.60;99.90;;;;;;5052079;28;20045;-71
2022/05/28 01:37:01;;;;;;;11.10;1.92;;;10.60;99.90;;;;;;5052355;28;20107;-71
2022/05/28 01:39:28;;;;;;;6.85;1.63;;;10.50;99.90;;;;;;5051959;28;20087;-70
2022/05/28 01:41:54;;;;;;;9.90;1.50;;;10.50;99.90;;;;;;5052271;28;20040;-70
2022/05/28 01:44:21;;;;;;;7.90;1.60;;;10.50;99.90;;;;;;5035596;28;20143;-70
2022/05/28 01:46:48;;;;;;;10.68;1.70;;;10.50;99.90;;;;;;5052264;28;20080;-71
2022/05/28 01:49:16;;;;;;;7.13;1.50;;;10.50;99.90;;;;;;5052195;28;20045;-71
2022/05/28 01:51:48;;;;;;;10.32;2.20;;;10.50;99.90;;;;;;5051899;28;20033;-71
2022/05/28 01:54:17;;;;;;;10.15;1.55;;;10.40;99.90;;;;;;5051967;28;20041;-71
2022/05/28 01:56:45;;;;;;;10.20;1.92;;;10.40;99.90;;;;;;5051785;28;20506;-71
2022/05/28 01:59:17;;;;;;;7.32;1.23;;;10.40;99.90;;;;;;5035525;28;20041;-70
2022/05/28 02:01:43;;;;;;;8.88;1.80;;;10.40;99.90;;;;;;5051536;28;20037;-70
2022/05/28 02:04:09;;;;;;;7.68;1.58;;;10.40;99.90;;;;;;5035449;28;20045;-71
2022/05/28 02:06:38;;;;;;;9.02;1.73;;;10.30;99.90;;;;;;5051676;28;20442;-70
2022/05/28 02:09:07;;;;;;;14.00;1.80;;;10.30;99.90;;;;;;5051735;28;20046;-70
2022/05/28 02:12:04;;;;;;;14.13;2.22;;;10.30;99.90;;;;;;5052018;28;20044;-71
2022/05/28 02:15:07;;;;;;;9.68;1.50;;;10.30;99.90;;;;;;5001688;28;20057;-71
2022/05/28 02:17:47;;;;;;;8.07;1.37;;;10.20;99.90;;;;;;5051676;28;20072;-71
2022/05/28 02:20:28;;;;;;;9.95;1.55;;;10.20;99.90;;;;;;5051601;28;20512;-70
2022/05/28 02:23:13;;;;;;;14.23;1.80;;;10.20;99.90;;;;;;5051644;28;20076;-71
2022/05/28 02:25:45;;;;;;;11.77;2.10;;;10.20;99.90;;;;;;5051575;28;20049;-70
2022/05/28 02:28:12;;;;;;;11.73;1.60;;;10.10;99.90;;;;;;5051608;28;20099;-70
2022/05/28 02:31:12;;;;;;;16.95;2.17;;;10.20;99.90;;;;;;5051393;28;20041;-70
2022/05/28 02:33:38;;;;;;;12.30;1.83;;;10.20;99.90;;;;;;5051733;28;20532;-71
2022/05/28 02:36:04;;;;;;;10.30;1.60;;;10.10;99.90;;;;;;5051442;28;20072;-70
2022/05/28 02:38:30;;;;;;;11.40;1.67;;;10.10;99.90;;;;;;5051361;28;20044;-70
2022/05/28 02:40:56;;;;;;;8.30;1.40;;;10.10;99.90;;;;;;5051350;28;20041;-70
2022/05/28 02:43:22;;;;;;;11.70;1.67;;;10.10;99.90;;;;;;5034821;28;20087;-70
2022/05/28 02:45:48;;;;;;;7.10;1.58;;;10.00;99.90;;;;;;5051358;28;20045;-70
2022/05/28 02:48:14;;;;;;;9.88;2.22;;;10.00;99.90;;;;;;5051286;28;20047;-70
2022/05/28 02:50:40;;;;;;;9.30;1.50;;;10.00;99.90;;;;;;5051162;28;20041;-71
2022/05/28 02:53:05;;;;;;;11.18;1.80;;;10.00;99.90;;;;;;5051258;28;20048;-71
2022/05/28 02:55:31;;;;;;;9.10;1.80;;;9.90;99.90;;;;;;5034714;28;20040;-70
2022/05/28 02:57:56;;;;;;;10.68;1.55;;;9.90;99.90;;;;;;5051456;28;20417;-70
2022/05/28 03:00:22;;;;;;;8.05;1.63;;;9.90;99.90;;;;;;5034534;28;20485;-70
2022/05/28 03:02:48;;;;;;;12.85;1.95;;;9.80;99.90;;;;;;5051503;28;20037;-70
2022/05/28 03:05:16;;;;;;;10.60;2.00;;;9.70;99.90;;;;;;5051188;28;20055;-71
2022/05/28 03:07:42;;;;;;;12.75;1.80;;;9.70;99.90;;;;;;5051279;28;20049;-71
2022/05/28 03:10:08;;;;;;;10.70;2.25;;;9.80;99.90;;;;;;5051094;28;20448;-71
2022/05/28 03:12:34;;;;;;;8.25;1.50;;;9.80;99.90;;;;;;5051171;28;20056;-71
2022/05/28 03:15:00;;;;;;;10.50;2.28;;;9.70;99.90;;;;;;5053886;28;20033;-71
2022/05/28 03:17:25;;;;;;;10.43;2.13;;;9.70;99.90;;;;;;5038270;28;20489;-71
2022/05/28 03:19:51;;;;;;;11.40;2.20;;;9.70;99.90;;;;;;5054621;28;20037;-71
2022/05/28 03:22:17;;;;;;;12.52;2.30;;;9.70;99.90;;;;;;5054551;28;20036;-71
2022/05/28 03:24:42;;;;;;;13.23;2.03;;;9.60;99.90;;;;;;5054470;28;20076;-71
2022/05/28 03:27:08;;;;;;;12.13;1.65;;;9.60;99.90;;;;;;5054737;28;20044;-71
2022/05/28 03:29:33;;;;;;;8.80;1.90;;;9.60;99.90;;;;;;5054295;28;20032;-71
2022/05/28 03:31:59;;;;;;;11.20;1.70;;;9.60;99.90;;;;;;5037660;28;20041;-71
2022/05/28 03:34:24;;;;;;;13.45;1.92;;;9.60;99.90;;;;;;5054283;28;20071;-71
2022/05/28 03:36:50;;;;;;;11.50;2.78;;;9.60;99.90;;;;;;5038205;28;20037;-70
2022/05/28 03:39:15;;;;;;;9.00;1.67;;;9.50;99.90;;;;;;5054488;28;20512;-71
2022/05/28 03:41:41;;;;;;;9.75;1.65;;;9.50;99.90;;;;;;5054385;28;20504;-70
2022/05/28 03:44:07;;;;;;;10.43;1.58;;;9.50;99.90;;;;;;5037810;28;20044;-71
2022/05/28 03:46:34;;;;;;;12.23;1.83;;;9.50;99.90;;;;;;5054134;28;20047;-71
2022/05/28 03:49:14;;;;;;;13.02;1.40;;;9.50;99.90;;;;;;5054292;28;20040;-71
2022/05/28 03:51:40;;;;;;;11.88;1.80;;;9.50;99.90;;;;;;5054739;28;20048;-71
2022/05/28 03:54:06;;;;;;;10.02;2.13;;;9.50;99.90;;;;;;5054241;28;20049;-71
2022/05/28 03:56:36;;;;;;;9.25;1.58;;;9.60;99.90;;;;;;5054112;28;20494;-71
2022/05/28 03:59:04;;;;;;;12.02;2.28;;;9.50;99.90;;;;;;5053937;28;20119;-71
2022/05/28 04:01:30;;;;;;;12.00;2.40;;;9.50;99.90;;;;;;5054002;28;20048;-71
2022/05/28 04:03:56;;;;;;;14.73;2.00;;;9.50;99.90;;;;;;5053716;28;20405;-71
2022/05/28 04:06:22;;;;;;;9.32;1.90;;;9.50;99.90;;;;;;5053714;28;20060;-71
2022/05/28 04:08:48;;;;;;;12.20;1.77;;;9.50;99.90;;;;;;5053953;28;20076;-71
2022/05/28 04:11:14;;;;;;;11.75;2.08;;;9.50;99.90;;;;;;5053441;28;20471;-70
2022/05/28 04:13:40;;;;;;;12.63;2.40;;;9.50;99.90;;;;;;5053582;28;20118;-70
2022/05/28 04:16:06;;;;;;;15.25;2.35;;;9.50;99.90;;;;;;5053854;28;20047;-70
2022/05/28 04:18:31;;;;;;;12.50;2.67;;;9.60;99.90;;;;;;5053784;28;20037;-70
2022/05/28 04:20:57;;;;;;;16.08;2.13;;;9.70;99.90;;;;;;5053336;28;20045;-70
2022/05/28 04:23:23;;;;;;;14.07;2.17;;;9.70;99.90;;;;;;5053402;28;20127;-70
2022/05/28 04:25:48;;;;;;;15.60;2.45;;;9.80;99.90;;;;;;5053249;28;20166;-71
2022/05/28 04:28:14;;;;;;;12.00;2.47;;;9.90;99.90;;;;;;5053278;28;20089;-70
2022/05/28 04:30:39;;;;;;;18.83;2.83;;;9.90;99.90;;;;;;5053645;28;20048;-71
2022/05/28 04:33:05;;;;;;;15.98;2.60;;;10.00;99.90;;;;;;5053452;28;20060;-71
2022/05/28 04:35:31;;;;;;;16.25;2.80;;;10.00;99.90;;;;;;5053404;28;20040;-71
2022/05/28 04:37:56;;;;;;;12.38;2.22;;;10.00;99.90;;;;;;5053090;28;20041;-71
2022/05/28 04:40:22;;;;;;;13.93;2.25;;;10.10;99.90;;;;;;5053020;28;20044;-70
2022/05/28 04:42:48;;;;;;;14.43;2.47;;;10.10;99.90;;;;;;5053061;28;20080;-71
2022/05/28 04:45:13;;;;;;;14.45;2.92;;;10.10;99.90;;;;;;5053223;28;20063;-71
2022/05/28 04:47:39;;;;;;;19.42;2.38;;;10.20;99.90;;;;;;5052947;28;20052;-71
2022/05/28 04:50:05;;;;;;;13.68;2.38;;;10.20;99.90;;;;;;5052730;28;20289;-71
2022/05/28 04:52:31;;;;;;;21.20;3.13;;;10.30;99.90;;;;;;5053087;28;20045;-71
2022/05/28 04:54:56;;;;;;;16.42;2.67;;;10.30;99.90;;;;;;5052723;28;20043;-71
2022/05/28 04:57:23;;;;;;;21.55;3.00;;;10.40;99.90;;;;;;5053036;28;20029;-71
2022/05/28 04:59:48;;;;;;;13.60;2.50;;;10.40;99.90;;;;;;5052646;28;20040;-71
2022/05/28 05:02:15;;;;;;;16.35;3.22;;;10.50;99.90;;;;;;5052916;28;20048;-71
2022/05/28 05:04:41;;;;;;;18.30;2.90;;;10.50;99.90;;;;;;5052897;28;20528;-71
2022/05/28 05:07:07;;;;;;;15.68;2.50;;;10.50;99.90;;;;;;5052840;28;20408;-71
2022/05/28 05:09:33;;;;;;;18.00;2.95;;;10.60;99.90;;;;;;5052349;28;20040;-71
2022/05/28 05:11:58;;;;;;;17.45;3.20;;;10.60;99.90;;;;;;5052481;28;20040;-71
2022/05/28 05:14:24;;;;;;;18.40;3.35;;;10.60;99.90;;;;;;5052469;28;20041;-71
2022/05/28 05:16:49;;;;;;;13.55;2.42;;;10.70;99.90;;;;;;5052410;28;20041;-70
2022/05/28 05:19:15;;;;;;;13.82;2.78;;;10.70;99.90;;;;;;5052353;28;20037;-71
2022/05/28 05:21:40;;;;;;;9.93;2.47;;;10.80;99.90;;;;;;5035649;28;20123;-71
2022/05/28 05:24:06;;;;;;;17.95;2.58;;;10.90;99.90;;;;;;5052288;28;20037;-71
2022/05/28 05:26:32;;;;;;;11.10;2.67;;;10.90;99.90;;;;;;5035665;28;20099;-70
2022/05/28 05:28:57;;;;;;;16.92;2.78;;;10.90;99.90;;;;;;5052423;28;20033;-70
2022/05/28 05:31:23;;;;;;;20.92;2.85;;;11.00;99.90;;;;;;5052159;28;20037;-71
2022/05/28 05:33:49;;;;;;;14.43;2.67;;;11.00;99.90;;;;;;5035644;28;20460;-71
2022/05/28 05:36:14;;;;;;;12.90;2.55;;;11.00;99.90;;;;;;5035350;28;20036;-71
2022/05/28 05:38:40;;;;;;;19.27;3.10;;;11.10;99.90;;;;;;5035205;28;20412;-71
2022/05/28 05:41:05;;;;;;;16.17;2.88;;;11.10;99.90;;;;;;5035358;28;20076;-70
2022/05/28 05:43:32;;;;;;;12.93;2.83;;;11.10;99.90;;;;;;5052021;28;20033;-70
2022/05/28 05:46:00;;;;;;;14.95;2.40;;;11.10;99.90;;;;;;5052260;28;20396;-70
2022/05/28 05:48:27;;;;;;;16.35;3.13;;;11.20;99.90;;;;;;5052236;28;20122;-70
2022/05/28 05:50:52;;;;;;;17.35;3.40;;;11.20;99.90;;;;;;5051787;28;20431;-71
2022/05/28 05:53:19;;;;;;;15.45;3.08;;;11.20;99.90;;;;;;5052124;28;20124;-71
2022/05/28 05:55:45;;;;;;;15.63;2.55;;;11.20;99.90;;;;;;5052103;28;20063;-71
2022/05/28 05:58:10;;;;;;;15.60;3.03;;;11.30;99.90;;;;;;5052019;28;20485;-71
2022/05/28 06:00:37;;;;;;;10.65;2.10;;;11.40;99.90;;;;;;5051789;28;20501;-70
2022/05/28 06:03:03;;;;;;;15.38;3.00;;;11.40;99.90;;;;;;5051782;28;20047;-71
2022/05/28 06:05:28;;;;;;;10.82;2.20;;;11.40;99.90;;;;;;5051781;28;20424;-71
2022/05/28 06:07:54;;;;;;;14.20;2.75;;;11.40;99.90;;;;;;5035379;28;20052;-71
2022/05/28 06:10:19;;;;;;;14.30;2.40;;;11.50;99.90;;;;;;5051479;28;20378;-71
2022/05/28 06:12:45;;;;;;;12.02;2.38;;;11.60;99.90;;;;;;5051617;28;20394;-71
2022/05/28 06:15:12;;;;;;;7.78;2.10;;;11.60;99.90;;;;;;5051663;28;20033;-71
2022/05/28 06:17:38;;;;;;;8.18;1.80;;;11.60;99.90;;;;;;5035263;28;20099;-71
2022/05/28 06:20:06;;;;;;;9.57;2.00;;;11.60;99.90;;;;;;5051502;28;20501;-71
2022/05/28 06:22:31;;;;;;;10.13;1.85;;;11.60;99.90;;;;;;5051554;28;20497;-71
2022/05/28 06:24:57;;;;;;;8.85;1.85;;;11.60;99.90;;;;;;5051621;28;20037;-71
2022/05/28 06:27:22;;;;;;;5.22;1.52;;;11.60;99.90;;;;;;5051803;28;20052;-71
2022/05/28 06:29:48;;;;;;;9.90;1.50;;;11.70;99.90;;;;;;5051482;28;20037;-71
2022/05/28 06:32:14;;;;;;;9.63;1.58;;;11.80;99.90;;;;;;5051447;28;20091;-71
2022/05/28 06:34:39;;;;;;;12.80;2.00;;;11.80;99.90;;;;;;5051449;28;20088;-71
2022/05/28 06:37:09;;;;;;;10.80;2.03;;;11.80;99.90;;;;;;5051423;28;20066;-70
2022/05/28 06:39:36;;;;;;;9.07;1.70;;;11.80;99.90;;;;;;5051352;28;20512;-71
2022/05/28 06:42:03;;;;;;;9.05;2.30;;;11.70;99.90;;;;;;5051692;28;20029;-71
2022/05/28 06:44:29;;;;;;;13.63;2.13;;;11.80;99.90;;;;;;5035061;28;20048;-71
2022/05/28 06:46:54;;;;;;;10.80;2.75;;;11.80;99.90;;;;;;5051410;28;20041;-71
2022/05/28 06:49:20;;;;;;;12.27;3.15;;;11.80;99.90;;;;;;5052640;28;20045;-71
2022/05/28 06:51:47;;;;;;;12.75;2.28;;;11.90;99.90;;;;;;5038567;28;20033;-71
2022/05/28 06:54:13;;;;;;;12.77;2.17;;;12.00;99.90;;;;;;5055390;28;20098;-71
2022/05/28 06:56:38;;;;;;;12.23;2.50;;;12.10;99.90;;;;;;5055069;28;20435;-71
2022/05/28 06:59:04;;;;;;;13.05;2.60;;;12.10;99.90;;;;;;5055045;28;20037;-71
2022/05/28 07:01:30;;;;;;;15.02;2.28;;;12.20;99.90;;;;;;5054895;28;20067;-71
2022/05/28 07:03:55;;;;;;;14.50;2.83;;;12.20;99.90;;;;;;5054904;28;20045;-71
2022/05/28 07:06:21;;;;;;;16.33;3.17;;;12.10;99.90;;;;;;5055128;28;20564;-71
2022/05/28 07:08:46;;;;;;;12.77;3.03;;;12.00;99.90;;;;;;5054763;28;20497;-71
2022/05/28 07:11:12;;;;;;;11.73;2.45;;;11.90;99.90;;;;;;5054566;28;20056;-71
2022/05/28 07:13:39;;;;;;;9.95;2.28;;;11.80;99.90;;;;;;5054763;28;20115;-71
2022/05/28 07:16:05;;;;;;;9.40;2.10;;;11.70;99.90;;;;;;5038053;28;20036;-71
2022/05/28 07:18:32;;;;;;;9.20;2.05;;;11.70;99.90;;;;;;5054653;28;20048;-71
2022/05/28 07:20:58;;;;;;;16.58;2.65;;;11.60;99.90;;;;;;5038252;28;20087;-71
2022/05/28 07:23:26;;;;;;;13.43;2.25;;;11.60;99.90;;;;;;5054670;28;20077;-71
2022/05/28 07:26:04;;;;;;;10.98;2.47;;;11.60;99.90;;;;;;5054471;28;20034;-71
2022/05/28 07:28:31;;;;;;;13.25;2.67;;;11.50;99.90;;;;;;5038050;28;20504;-71
2022/05/28 07:30:59;;;;;;;11.95;2.40;;;11.40;99.90;;;;;;5054466;28;20099;-71
2022/05/28 07:33:26;;;;;;;10.68;2.17;;;11.40;99.90;;;;;;5054390;28;20037;-71
2022/05/28 07:35:54;;;;;;;13.57;2.80;;;11.40;99.90;;;;;;5054406;28;20521;-71
2022/05/28 07:38:20;;;;;;;10.18;2.75;;;11.40;99.90;;;;;;5054539;28;20029;-71
2022/05/28 07:40:46;;;;;;;11.68;2.22;;;11.40;99.90;;;;;;5054438;28;20048;-71
2022/05/28 07:43:12;;;;;;;9.68;2.08;;;11.40;99.90;;;;;;5054155;28;20515;-71
2022/05/28 07:45:40;;;;;;;11.43;2.05;;;11.50;99.90;;;;;;5054215;28;20556;-71
2022/05/28 07:48:06;;;;;;;12.32;2.28;;;11.60;99.90;;;;;;5054151;28;20052;-71
2022/05/28 07:50:32;;;;;;;13.70;2.95;;;11.70;99.90;;;;;;5054134;28;20047;-71
2022/05/28 07:52:59;;;;;;;14.85;2.47;;;11.80;99.90;;;;;;5053968;28;20520;-71
2022/05/28 07:55:25;;;;;;;13.05;2.35;;;11.90;99.90;;;;;;5054216;28;20041;-71
2022/05/28 07:57:51;;;;;;;13.55;2.53;;;12.00;99.90;;;;;;5037640;28;20045;-71
2022/05/28 08:00:17;;;;;;;12.48;1.90;;;12.20;99.90;;;;;;5053340;28;20562;-71
2022/05/28 08:02:43;;;;;;;13.07;2.50;;;12.30;99.90;;;;;;5053806;28;20058;-71
2022/05/28 08:05:09;;;;;;;13.77;2.60;;;12.30;99.90;;;;;;5054013;28;20029;-71
2022/05/28 08:07:34;;;;;;;18.48;2.55;;;12.40;99.90;;;;;;5054054;28;20517;-71
2022/05/28 08:10:00;;;;;;;13.80;2.53;;;12.50;99.90;;;;;;5053821;28;20481;-71
2022/05/28 08:12:26;;;;;;;18.38;2.92;;;12.80;99.90;;;;;;5053616;28;20555;-71
2022/05/28 08:14:51;;;;;;;14.68;2.97;;;13.00;99.90;;;;;;5053637;28;20041;-71
2022/05/28 08:17:17;;;;;;;13.50;2.80;;;13.20;99.90;;;;;;5053736;28;20132;-71
2022/05/28 08:19:43;;;;;;;14.75;3.08;;;13.30;99.90;;;;;;5053374;28;20386;-71
2022/05/28 08:24:52;;;;;;;17.00;3.10;;;13.20;99.90;;;;;;5053385;28;20049;-71
2022/05/28 08:27:18;;;;;;;19.02;3.28;;;13.10;99.90;;;;;;5053366;28;20041;-71
2022/05/28 08:29:44;;;;;;;18.80;3.10;;;13.00;99.90;;;;;;5053269;28;20119;-70
2022/05/28 08:32:09;;;;;;;14.98;2.88;;;12.90;99.90;;;;;;5055212;28;20040;-71
2022/05/28 08:34:35;;;;;;;15.27;3.83;;;13.00;99.90;;;;;;5053210;28;20041;-71
2022/05/28 08:37:01;;;;;;;16.98;3.70;;;13.20;99.90;;;;;;5053182;28;20099;-71
2022/05/28 08:39:26;;;;;;;19.52;2.97;;;13.30;99.90;;;;;;5053026;28;20033;-71
2022/05/28 08:41:59;;;;;;;17.42;2.88;;;13.50;99.90;;;;;;5053264;28;20044;-71
2022/05/28 08:44:33;;;;;;;19.70;3.30;;;13.60;99.90;;;;;;5053267;28;20183;-71
2022/05/28 08:47:21;;;;;;;18.23;3.38;;;13.70;99.90;;;;;;5053255;28;20106;-71
2022/05/28 08:49:49;;;;;;;13.10;2.33;;;13.70;99.90;;;;;;5052904;28;20045;-71
2022/05/28 08:52:38;;;;;;;20.67;3.42;;;13.60;99.90;;;;;;5052890;28;20511;-71
2022/05/28 08:55:16;;;;;;;19.60;3.92;;;13.50;99.90;;;;;;5053135;28;20497;-71
2022/05/28 08:57:58;;;;;;;15.88;2.80;;;13.40;99.90;;;;;;5052778;28;20041;-71
2022/05/28 09:00:44;;;;;;;14.35;3.00;;;13.40;99.90;;;;;;5036376;28;20445;-71
2022/05/28 09:03:22;;;;;;;18.52;2.97;;;13.40;99.90;;;;;;5052738;28;20485;-71
2022/05/28 09:05:57;;;;;;;14.27;3.65;;;13.50;99.90;;;;;;5036045;28;20033;-71
2022/05/28 09:08:28;;;;;;;17.13;2.88;;;13.90;99.90;;;;;;5036000;28;20040;-71
2022/05/28 09:10:56;;;;;;;21.60;3.15;;;14.10;99.90;;;;;;5052125;28;20040;-70
2022/05/28 09:13:28;;;;;;;18.38;3.67;;;14.20;99.90;;;;;;5052171;28;20390;-71
2022/05/28 09:15:57;;;;;;;16.27;3.13;;;14.10;99.90;;;;;;5052419;28;20124;-71
2022/05/28 09:18:25;;;;;;;15.00;2.72;;;14.20;99.90;;;;;;5035776;28;20508;-71
2022/05/28 09:20:51;;;;;;;14.63;2.80;;;14.30;99.90;;;;;;5052304;28;20083;-71
2022/05/28 09:23:16;;;;;;;17.80;2.83;;;14.50;99.90;;;;;;5052692;28;20072;-71
2022/05/28 09:25:45;;;;;;;12.70;2.65;;;14.70;99.90;;;;;;5053528;28;20052;-71
2022/05/28 09:28:28;;;;;;;13.65;2.47;;;14.80;99.90;;;;;;5052234;28;20053;-70
2022/05/28 09:31:13;;;;;;;15.68;2.50;;;14.90;99.90;;;;;;5052086;28;20516;-70
2022/05/28 09:34:06;;;;;;;16.10;2.97;;;15.10;99.90;;;;;;5035566;28;20044;-70
2022/05/28 09:36:46;;;;;;;13.18;2.70;;;15.30;99.90;;;;;;5052053;28;20048;-70
2022/05/28 09:39:33;;;;;;;13.70;2.65;;;15.40;99.90;;;;;;5052130;28;20044;-70
2022/05/28 09:42:20;;;;;;;13.18;2.20;;;15.40;99.90;;;;;;5052322;28;20500;-71
2022/05/28 09:44:59;;;;;;;14.88;3.25;;;15.20;99.90;;;;;;5052054;28;20163;-71
2022/05/28 09:47:25;;;;;;;15.40;3.05;;;15.10;99.90;;;;;;5035707;28;20037;-71
2022/05/28 09:49:56;;;;;;;13.25;2.75;;;15.00;99.90;;;;;;5052058;28;20041;-71
2022/05/28 09:52:27;;;;;;;14.48;2.60;;;15.00;99.90;;;;;;5051846;28;20040;-70
2022/05/28 09:55:10;;;;;;;13.82;2.80;;;15.00;99.90;;;;;;5051817;28;20045;-70
2022/05/28 09:57:45;;;;;;;15.00;2.63;;;14.80;99.90;;;;;;5035300;28;20048;-70
2022/05/28 10:00:12;;;;;;;19.45;2.75;;;14.60;99.90;;;;;;5035484;28;20033;-71
2022/05/28 10:04:28;;;;;;;13.80;2.70;;;14.30;99.90;;;;;;5052304;28;20041;-71
2022/05/28 10:05:33;;;;;;;14.32;3.05;;;14.30;99.90;;;;;;5051863;28;20041;-71
2022/05/28 10:08:09;;;;;;;14.48;3.08;;;14.30;99.90;;;;;;5051726;28;20045;-71
2022/05/28 10:10:39;;;;;;;17.02;3.38;;;14.40;99.90;;;;;;5051835;28;20120;-71
2022/05/28 10:13:17;;;;;;;13.13;3.30;;;14.60;99.90;;;;;;5051749;28;20081;-71
2022/05/28 10:15:54;;;;;;;19.63;3.53;;;15.10;99.90;;;;;;5051682;28;20045;-70
2022/05/28 10:18:28;;;;;;;18.90;3.58;;;15.30;99.90;;;;;;5051674;28;20040;-70
2022/05/28 10:21:37;;;;;;;15.02;2.70;;;15.50;99.90;;;;;;5051626;28;20044;-70
2022/05/28 10:24:16;;;;;;;14.40;3.08;;;15.60;99.90;;;;;;4977961;28;20097;-70
2022/05/28 10:26:49;;;;;;;13.18;2.90;;;15.60;99.90;;;;;;4979484;28;20065;-71
2022/05/28 10:29:24;;;;;;;12.98;2.53;;;15.40;99.90;;;;;;4979424;28;20506;-70
2022/05/28 10:31:51;;;;;;;13.15;2.58;;;15.30;99.90;;;;;;4979172;28;20047;-71
2022/05/28 10:34:32;;;;;;;14.82;2.50;;;15.00;99.90;;;;;;4979199;28;20537;-71
2022/05/28 10:37:15;;;;;;;16.88;2.97;;;14.80;99.90;;;;;;4979038;28;20410;-71
2022/05/28 10:39:42;;;;;;;17.38;2.83;;;14.50;99.90;;;;;;4979207;28;20038;-71
2022/05/28 10:42:10;;;;;;;11.90;2.40;;;14.30;99.90;;;;;;4979124;28;20105;-71
2022/05/28 10:44:39;;;;;;;10.73;1.90;;;14.30;99.90;;;;;;4978893;28;20439;-71
2022/05/28 10:47:29;;;;;;;12.13;2.25;;;14.40;99.90;;;;;;4978855;28;20523;-70
2022/05/28 10:50:20;;;;;;;10.48;2.55;;;14.50;99.90;;;;;;4978804;28;20121;-70
2022/05/28 10:52:56;;;;;;;11.95;2.10;;;14.60;99.90;;;;;;4962564;28;20466;-70
2022/05/28 10:55:35;;;;;;;14.43;2.40;;;14.50;99.90;;;;;;4962858;28;20046;-70
2022/05/28 10:58:37;;;;;;;13.50;2.55;;;14.50;99.90;;;;;;4978756;28;20538;-70
2022/05/28 11:01:19;;;;;;;12.70;2.33;;;14.40;99.90;;;;;;5036229;28;20123;-71
2022/05/28 11:04:04;;;;;;;16.48;2.30;;;14.50;99.90;;;;;;5054996;28;20119;-71
2022/05/28 11:06:53;;;;;;;13.88;2.38;;;14.70;99.90;;;;;;5038424;28;20037;-71
2022/05/28 11:09:24;;;;;;;11.30;2.95;;;14.90;99.90;;;;;;5055118;28;20037;-71
2022/05/28 11:11:58;;;;;;;12.50;2.55;;;14.80;99.90;;;;;;5054803;28;20091;-71
2022/05/28 11:15:05;;;;;;;8.80;2.20;;;14.70;99.90;;;;;;5054843;28;20033;-71
2022/05/28 11:18:03;;;;;;;11.90;2.42;;;14.50;99.90;;;;;;5054764;28;20045;-71
2022/05/28 11:21:11;;;;;;;12.82;2.47;;;14.30;99.90;;;;;;5054662;28;20048;-71
2022/05/28 11:24:08;;;;;;;13.85;2.22;;;14.30;99.90;;;;;;5038032;28;20033;-71
2022/05/28 11:26:51;;;;;;;11.00;2.20;;;14.40;99.90;;;;;;5054542;28;20043;-71
2022/05/28 11:29:35;;;;;;;12.35;2.72;;;14.50;99.90;;;;;;5054834;28;20029;-71
2022/05/28 11:32:09;;;;;;;13.73;2.67;;;14.70;99.90;;;;;;5054416;28;20037;-71
2022/05/28 11:34:48;;;;;;;14.63;2.63;;;14.90;99.90;;;;;;5053630;28;20123;-71
2022/05/28 11:37:28;;;;;;;11.40;2.47;;;15.30;99.90;;;;;;5054340;28;20133;-70
2022/05/28 11:40:00;;;;;;;13.20;2.83;;;15.70;99.90;;;;;;5054250;28;20492;-70
2022/05/28 11:42:47;;;;;;;11.90;2.28;;;16.20;99.90;;;;;;5037725;28;20045;-70
2022/05/28 11:45:22;;;;;;;13.07;2.20;;;16.70;99.90;;;;;;5054206;28;20129;-70
2022/05/28 11:48:10;;;;;;;12.75;2.30;;;16.70;99.90;;;;;;5054267;28;20091;-71
2022/05/28 11:53:29;;;;;;;11.40;2.40;;;16.30;99.90;;;;;;5054005;28;20049;-70
2022/05/28 11:56:00;;;;;;;13.85;2.85;;;16.00;99.90;;;;;;5054219;28;20108;-71
2022/05/28 11:58:32;;;;;;;14.10;2.60;;;15.90;99.90;;;;;;5054252;28;20481;-71
2022/05/28 12:01:01;;;;;;;12.70;2.67;;;15.70;99.90;;;;;;5053895;28;20044;-71
2022/05/28 12:03:29;;;;;;;14.48;2.78;;;15.60;99.90;;;;;;5053919;28;20044;-71
2022/05/28 12:06:22;;;;;;;13.57;2.83;;;15.50;99.90;;;;;;5053823;28;20041;-71
2022/05/28 12:09:10;;;;;;;11.65;2.90;;;15.70;99.90;;;;;;5044194;28;20103;-71
2022/05/28 12:11:40;;;;;;;12.80;2.47;;;15.80;99.90;;;;;;5036950;28;20033;-70
2022/05/28 12:14:39;;;;;;;13.93;2.70;;;15.80;99.90;;;;;;5053706;28;20047;-71
2022/05/28 12:17:25;;;;;;;15.82;2.58;;;15.90;99.90;;;;;;5053586;28;20041;-71
2022/05/28 12:20:12;;;;;;;17.80;3.08;;;15.90;99.90;;;;;;5053532;28;20045;-71
2022/05/28 12:22:54;;;;;;;15.45;2.78;;;16.10;99.90;;;;;;5053581;28;20043;-71
2022/05/28 12:25:31;;;;;;;12.77;2.45;;;16.20;99.90;;;;;;5036848;28;20069;-71
2022/05/28 12:27:57;;;;;;;12.00;2.45;;;16.20;99.90;;;;;;5037095;28;20037;-71
2022/05/28 12:30:30;;;;;;;12.38;2.58;;;16.20;99.90;;;;;;5053113;28;20037;-70
2022/05/28 12:32:57;;;;;;;11.75;2.38;;;16.30;99.90;;;;;;5036619;28;20048;-70
2022/05/28 12:35:25;;;;;;;11.60;2.13;;;16.40;99.90;;;;;;5053523;28;20037;-71
2022/05/28 12:38:01;;;;;;;10.73;2.47;;;16.70;99.90;;;;;;5053381;28;20040;-70
2022/05/28 12:40:54;;;;;;;10.63;2.22;;;16.90;99.90;;;;;;5036797;28;20044;-70
2022/05/28 12:43:33;;;;;;;8.70;1.80;;;17.00;99.90;;;;;;5053419;28;20045;-71
2022/05/28 12:46:22;;;;;;;10.80;1.98;;;16.90;99.90;;;;;;5036707;28;20045;-71
2022/05/28 12:49:02;;;;;;;9.57;1.55;;;16.80;99.90;;;;;;5053012;28;20074;-71
2022/05/28 12:51:50;;;;;;;8.05;1.55;;;16.50;99.90;;;;;;5052846;28;20040;-71
2022/05/28 12:54:27;;;;;;;9.18;2.20;;;16.50;99.90;;;;;;5052924;28;20041;-71
2022/05/28 12:57:04;;;;;;;7.88;1.80;;;16.70;99.30;;;;;;5052938;28;20408;-71
2022/05/28 12:59:34;;;;;;;12.57;2.33;;;16.60;99.70;;;;;;5052770;28;20083;-71
2022/05/28 13:02:15;;;;;;;9.68;2.05;;;16.40;99.10;;;;;;5052781;28;20067;-71
2022/05/28 13:04:47;;;;;;;11.85;2.08;;;16.10;99.90;;;;;;5052657;28;20040;-71
2022/05/28 13:07:46;;;;;;;15.05;2.47;;;15.90;99.90;;;;;;5052945;28;20057;-71